Terminal Aerodrome Forecast
Issued by NWS Portland, OR

Home | Current Version | Previous Version | Text Only | Print | Product List | Glossary On
Versions: 1 2 3 4 5 6 7 8 9 10 11 12 13 14 15 16 17 18 19 20 21 22 23 24 25 26 27 28 29 30 31 32 33 34 35
000
FTUS46 KPQR 131754
TAFEUG
TAF
KEUG 131754Z 1318/1418 20010KT P6SM VCTS BKN010 BKN120CB BKN250
     FM131930 22008KT P6SM VCTS SCT010 SCT070CB BKN120
     FM132100 25007KT P6SM VCTS SCT060CB BKN150
     FM140500 22003KT P6SM SCT150
     FM141200 VRB05KT P6SM BKN011=

USA.gov is the U.S. government's official web portal to all federal, state and local government web resources and services.